Time;durP1;ratioP1;P1;durP2;ratioP2;P2;SDS_P1;SDS_P2;PMS_P1;PMS_P2;Temp;Humidity;BMP_temperature;BMP_pressure;BME280_temperature;BME280_humidity;BME280_pressure;Samples;Min_cycle;Max_cycle;Signal;HPM_P1;HPM_P2
2022/08/09 00:01:47;;;;;;;3.72;1.55;;;20.40;90.00;;;;;;5071215;28;20024;-72
2022/08/09 00:04:17;;;;;;;4.15;1.40;;;20.40;90.00;;;;;;5071302;28;20046;-71
2022/08/09 00:06:44;;;;;;;5.55;2.30;;;20.40;90.10;;;;;;5071017;28;20024;-70
2022/08/09 00:09:10;;;;;;;6.60;1.35;;;20.40;90.10;;;;;;5071019;28;20029;-70
2022/08/09 00:11:37;;;;;;;4.95;1.80;;;20.40;90.10;;;;;;5071205;28;20462;-71
2022/08/09 00:14:03;;;;;;;3.22;1.58;;;20.40;90.10;;;;;;5071274;28;20029;-70
2022/08/09 00:16:29;;;;;;;5.28;1.45;;;20.40;90.20;;;;;;5070986;28;20028;-70
2022/08/09 00:18:55;;;;;;;4.07;1.63;;;20.30;90.20;;;;;;5070753;28;20029;-70
2022/08/09 00:21:21;;;;;;;5.22;1.60;;;20.30;90.20;;;;;;5070888;28;20032;-71
2022/08/09 00:23:47;;;;;;;5.93;1.98;;;20.30;90.20;;;;;;5053066;28;20029;-70
2022/08/09 00:26:13;;;;;;;4.88;1.65;;;20.30;90.20;;;;;;5070839;28;20036;-71
2022/08/09 00:28:39;;;;;;;4.65;1.42;;;20.30;90.20;;;;;;5070807;28;20033;-70
2022/08/09 00:31:05;;;;;;;4.35;1.70;;;20.30;90.20;;;;;;5070849;28;20025;-70
2022/08/09 00:33:31;;;;;;;3.25;1.60;;;20.30;90.20;;;;;;5070944;28;20033;-70
2022/08/09 00:36:00;;;;;;;3.92;1.70;;;20.30;90.30;;;;;;5070624;28;20068;-70
2022/08/09 00:38:26;;;;;;;3.53;1.70;;;20.30;90.30;;;;;;5070845;28;20161;-70
2022/08/09 00:40:52;;;;;;;4.95;1.92;;;20.30;90.30;;;;;;5070585;28;20539;-70
2022/08/09 00:43:21;;;;;;;3.97;1.60;;;20.30;90.30;;;;;;5086349;22;20131;-72
2022/08/09 00:45:47;;;;;;;;;;;20.20;90.40;;;;;;5053254;28;20142;-72
2022/08/09 00:48:13;;;;;;;3.65;1.70;;;20.20;90.40;;;;;;5070500;28;20003;-72
2022/08/09 00:50:39;;;;;;;3.63;1.60;;;20.30;90.70;;;;;;5070473;28;20029;-72
2022/08/09 00:53:06;;;;;;;4.60;1.77;;;20.20;90.40;;;;;;5052781;28;20043;-72
2022/08/09 00:55:32;;;;;;;5.18;1.90;;;20.20;90.50;;;;;;5070649;28;20032;-72
2022/08/09 00:57:58;;;;;;;4.90;1.67;;;20.20;90.50;;;;;;5070427;28;20032;-72
2022/08/09 01:00:24;;;;;;;5.18;1.83;;;20.20;90.50;;;;;;5070325;28;20461;-71
2022/08/09 01:02:57;;;;;;;4.50;1.40;;;20.20;90.60;;;;;;5074398;28;20086;-72
2022/08/09 01:05:51;;;;;;;5.05;1.65;;;20.20;90.60;;;;;;5074774;28;20432;-72
2022/08/09 01:08:39;;;;;;;3.97;2.00;;;20.10;90.60;;;;;;5066931;28;20405;-72
2022/08/09 01:11:17;;;;;;;3.83;1.33;;;20.10;90.70;;;;;;5074397;28;20082;-72
2022/08/09 01:13:50;;;;;;;4.68;1.83;;;20.10;90.70;;;;;;5074508;28;20043;-72
2022/08/09 01:16:20;;;;;;;4.68;1.40;;;20.10;90.70;;;;;;5074391;28;20024;-71
2022/08/09 01:18:48;;;;;;;4.43;1.42;;;20.10;90.70;;;;;;5074071;28;20035;-72
2022/08/09 01:21:27;;;;;;;4.88;1.73;;;20.00;90.80;;;;;;5074140;28;20077;-72
2022/08/09 01:23:56;;;;;;;5.18;1.77;;;20.00;90.80;;;;;;5074155;28;20107;-72
2022/08/09 01:26:37;;;;;;;3.90;1.38;;;20.00;90.90;;;;;;5074006;28;20082;-72
2022/08/09 01:29:05;;;;;;;3.42;1.40;;;20.00;90.90;;;;;;5074171;28;20370;-72
2022/08/09 01:31:35;;;;;;;4.05;1.50;;;20.00;90.90;;;;;;5074068;28;20032;-71
2022/08/09 01:34:04;;;;;;;3.60;1.67;;;20.00;91.00;;;;;;5056061;28;20443;-71
2022/08/09 01:36:32;;;;;;;4.63;1.75;;;20.00;91.00;;;;;;5073982;28;20554;-72
2022/08/09 01:38:59;;;;;;;4.05;1.70;;;19.90;91.00;;;;;;5073855;28;20123;-71
2022/08/09 01:41:31;;;;;;;4.32;1.50;;;20.00;91.10;;;;;;5073977;28;20392;-72
2022/08/09 01:44:01;;;;;;;3.63;1.60;;;19.90;91.10;;;;;;5056138;28;20451;-72
2022/08/09 01:46:29;;;;;;;3.72;1.40;;;19.90;91.20;;;;;;5073616;28;20032;-72
2022/08/09 01:49:02;;;;;;;6.83;1.70;;;19.90;91.20;;;;;;5073527;28;20052;-72
2022/08/09 01:51:30;;;;;;;3.90;1.48;;;19.90;91.30;;;;;;5055819;28;20028;-72
2022/08/09 01:53:59;;;;;;;3.00;1.52;;;19.90;91.30;;;;;;5055671;28;20075;-72
2022/08/09 01:56:27;;;;;;;3.53;1.60;;;19.80;91.40;;;;;;5073555;28;20029;-72
2022/08/09 01:58:56;;;;;;;3.83;1.50;;;19.80;91.40;;;;;;5073212;28;20036;-72
2022/08/09 02:01:22;;;;;;;;;;;19.80;91.50;;;;;;5073929;28;20028;-72
2022/08/09 02:03:49;;;;;;;3.00;1.60;;;19.80;91.50;;;;;;5073519;28;19970;-72
2022/08/09 02:07:07;;;;;;;4.55;1.60;;;19.80;91.60;;;;;;5073423;28;20477;-72
2022/08/09 02:09:04;;;;;;;3.30;1.80;;;19.80;91.60;;;;;;5072979;28;20558;-72
2022/08/09 02:11:30;;;;;;;5.90;1.80;;;19.70;91.60;;;;;;5073264;28;20024;-72
2022/08/09 02:13:57;;;;;;;4.63;1.63;;;19.70;91.70;;;;;;5072626;28;20047;-72
2022/08/09 02:16:23;;;;;;;3.15;1.50;;;19.70;91.80;;;;;;5073088;28;20036;-72
2022/08/09 02:18:50;;;;;;;4.13;1.55;;;19.70;91.80;;;;;;5072949;28;20111;-72
2022/08/09 02:21:19;;;;;;;4.28;2.10;;;19.70;91.90;;;;;;5073093;28;20060;-72
2022/08/09 02:23:48;;;;;;;;;;;19.70;91.90;;;;;;5073600;28;20094;-72
2022/08/09 02:26:15;;;;;;;2.42;1.65;;;19.70;92.00;;;;;;5072922;28;19916;-72
2022/08/09 02:28:50;;;;;;;2.70;1.75;;;19.60;92.00;;;;;;5054872;28;20032;-72
2022/08/09 02:31:24;;;;;;;6.80;1.70;;;19.60;92.10;;;;;;5072890;28;20028;-72
2022/08/09 02:33:53;;;;;;;3.30;1.52;;;19.60;92.10;;;;;;5055142;28;20093;-72
2022/08/09 02:36:25;;;;;;;4.38;2.00;;;19.60;92.10;;;;;;5072816;28;20055;-72
2022/08/09 02:38:54;;;;;;;4.50;1.40;;;19.60;92.20;;;;;;5072539;28;20031;-72
2022/08/09 02:41:49;;;;;;;4.82;2.03;;;19.60;92.20;;;;;;5072726;28;20484;-72
2022/08/09 02:44:19;;;;;;;4.63;1.63;;;19.60;92.20;;;;;;5072773;28;20048;-72
2022/08/09 02:46:49;;;;;;;4.50;2.28;;;19.50;92.30;;;;;;5072615;28;20503;-71
2022/08/09 02:49:18;;;;;;;7.45;2.90;;;19.50;92.40;;;;;;5072393;28;20028;-72
2022/08/09 02:51:44;;;;;;;;;;;19.50;92.40;;;;;;5073334;28;20029;-72
2022/08/09 02:54:13;;;;;;;5.65;2.22;;;19.50;92.50;;;;;;5072575;28;20315;-72
2022/08/09 02:56:41;;;;;;;5.32;1.90;;;19.50;92.50;;;;;;5072430;28;20085;-72
2022/08/09 02:59:09;;;;;;;3.95;1.98;;;19.50;92.60;;;;;;5072228;28;20085;-72
2022/08/09 03:01:38;;;;;;;4.85;1.90;;;19.50;92.90;;;;;;5054396;28;20093;-72
2022/08/09 03:04:06;;;;;;;4.38;2.38;;;19.50;92.70;;;;;;5072445;28;20028;-72
2022/08/09 03:06:34;;;;;;;3.15;1.80;;;19.40;92.70;;;;;;5054358;28;20039;-71
2022/08/09 03:09:01;;;;;;;3.67;2.08;;;19.40;92.80;;;;;;5072188;28;20101;-72
2022/08/09 03:11:28;;;;;;;5.10;2.00;;;19.40;92.90;;;;;;5072125;28;20163;-72
2022/08/09 03:13:55;;;;;;;2.72;1.60;;;19.40;92.90;;;;;;5072259;28;20043;-72
2022/08/09 03:16:22;;;;;;;3.17;1.70;;;19.40;93.00;;;;;;5071781;28;20036;-72
2022/08/09 03:18:49;;;;;;;3.92;1.98;;;19.30;93.00;;;;;;5071935;28;20481;-72
2022/08/09 03:21:18;;;;;;;3.70;1.90;;;19.30;93.10;;;;;;5071884;28;20021;-72
2022/08/09 03:23:45;;;;;;;5.35;1.90;;;19.30;93.10;;;;;;5071911;28;20442;-72
2022/08/09 03:26:16;;;;;;;4.75;1.70;;;19.30;93.20;;;;;;5071024;28;20029;-72
2022/08/09 03:28:45;;;;;;;4.00;1.83;;;19.30;93.20;;;;;;5071634;28;20044;-72
2022/08/09 03:31:11;;;;;;;6.60;2.15;;;19.30;93.30;;;;;;5071778;28;20040;-72
2022/08/09 03:33:38;;;;;;;3.03;1.63;;;19.30;93.30;;;;;;5071688;28;20024;-72
2022/08/09 03:36:06;;;;;;;3.65;2.00;;;19.30;93.40;;;;;;5071542;28;20077;-72
2022/08/09 03:38:37;;;;;;;6.68;2.10;;;19.20;93.40;;;;;;5071398;28;20086;-72
2022/08/09 03:41:03;;;;;;;5.93;2.20;;;19.20;93.50;;;;;;5071526;28;20442;-71
2022/08/09 03:43:29;;;;;;;3.92;2.03;;;19.20;93.60;;;;;;5071416;28;20122;-72
2022/08/09 03:45:55;;;;;;;4.38;2.22;;;19.20;93.70;;;;;;5071615;28;20142;-72
2022/08/09 03:48:25;;;;;;;6.20;2.08;;;19.20;93.70;;;;;;5071447;28;20036;-72
2022/08/09 03:50:55;;;;;;;4.32;2.22;;;19.20;93.70;;;;;;5053495;28;20082;-72
2022/08/09 03:53:22;;;;;;;5.15;2.10;;;19.20;93.80;;;;;;5071385;28;20021;-72
2022/08/09 03:55:49;;;;;;;4.65;2.20;;;19.20;93.80;;;;;;5071257;28;20044;-72
2022/08/09 03:58:16;;;;;;;3.25;1.98;;;19.10;93.90;;;;;;5071123;28;20056;-72
2022/08/09 04:00:44;;;;;;;7.60;3.03;;;19.10;93.90;;;;;;5071034;28;20048;-72
2022/08/09 04:03:10;;;;;;;5.20;2.20;;;19.10;94.00;;;;;;5071238;28;20104;-72
2022/08/09 04:05:36;;;;;;;4.10;2.28;;;19.10;94.00;;;;;;5071310;28;20270;-72
2022/08/09 04:08:02;;;;;;;7.32;2.65;;;19.10;94.10;;;;;;5071258;28;20465;-72
2022/08/09 04:10:28;;;;;;;9.05;3.22;;;19.10;94.10;;;;;;5070859;28;20036;-72
2022/08/09 04:12:54;;;;;;;4.15;2.55;;;19.10;94.10;;;;;;5071144;28;20046;-72
2022/08/09 04:15:23;;;;;;;6.20;2.70;;;19.10;94.20;;;;;;5071168;28;20490;-72
2022/08/09 04:17:49;;;;;;;5.38;2.60;;;19.10;94.20;;;;;;5071150;28;20029;-72
2022/08/09 04:20:16;;;;;;;5.93;2.92;;;19.10;94.30;;;;;;5070750;28;20033;-72
2022/08/09 04:22:43;;;;;;;6.00;2.80;;;19.10;94.30;;;;;;5071061;28;20025;-72
2022/08/09 04:25:10;;;;;;;4.93;2.72;;;19.10;94.30;;;;;;5052938;28;20135;-72
2022/08/09 04:27:40;;;;;;;6.00;3.00;;;19.00;94.40;;;;;;5070868;28;20482;-72
2022/08/09 04:30:14;;;;;;;4.35;2.55;;;19.00;94.40;;;;;;5070697;28;20158;-72
2022/08/09 04:32:41;;;;;;;4.38;2.38;;;19.00;94.40;;;;;;5071052;28;20032;-72
2022/08/09 04:35:09;;;;;;;6.82;2.90;;;19.00;94.40;;;;;;5070814;28;20028;-72
2022/08/09 04:37:36;;;;;;;5.97;3.15;;;19.00;94.50;;;;;;5070365;28;20392;-72
2022/08/09 04:40:03;;;;;;;5.35;2.60;;;19.00;94.60;;;;;;5070544;28;20385;-72
2022/08/09 04:42:30;;;;;;;4.80;2.63;;;19.00;94.60;;;;;;5070653;28;20503;-72
2022/08/09 04:44:56;;;;;;;6.47;2.42;;;19.00;94.60;;;;;;5070832;28;20033;-72
2022/08/09 04:47:23;;;;;;;4.47;2.67;;;19.00;94.60;;;;;;5070502;28;20040;-72
2022/08/09 04:49:50;;;;;;;6.80;2.92;;;19.00;94.70;;;;;;5070281;28;20389;-72
2022/08/09 04:52:16;;;;;;;3.67;2.45;;;19.00;94.70;;;;;;5070612;28;20024;-72
2022/08/09 04:54:42;;;;;;;4.05;2.60;;;19.00;94.70;;;;;;5070668;28;20123;-72
2022/08/09 04:57:08;;;;;;;5.82;3.08;;;19.00;94.80;;;;;;5070703;28;20123;-72
2022/08/09 04:59:34;;;;;;;5.95;3.10;;;19.00;94.80;;;;;;5070237;28;20028;-72
2022/08/09 05:02:00;;;;;;;7.53;2.63;;;19.00;94.90;;;;;;5070660;28;20029;-72
2022/08/09 05:04:26;;;;;;;5.70;2.42;;;19.00;95.00;;;;;;5052475;28;20036;-72
2022/08/09 05:06:52;;;;;;;7.70;2.80;;;18.90;95.10;;;;;;5070380;28;20032;-72
2022/08/09 05:09:18;;;;;;;5.38;3.10;;;18.90;95.10;;;;;;5070276;28;20032;-72
2022/08/09 05:11:44;;;;;;;7.35;3.47;;;18.90;95.20;;;;;;5070419;28;20032;-72
2022/08/09 05:14:10;;;;;;;6.80;3.45;;;19.00;95.20;;;;;;5070497;28;20036;-72
2022/08/09 05:16:36;;;;;;;8.80;3.28;;;18.90;95.30;;;;;;5070325;28;20052;-72
2022/08/09 05:19:02;;;;;;;10.13;3.13;;;18.90;95.30;;;;;;5069958;28;20507;-72
2022/08/09 05:21:29;;;;;;;8.57;3.15;;;18.90;95.30;;;;;;5070293;28;20028;-72
2022/08/09 05:23:54;;;;;;;6.85;3.00;;;18.90;95.40;;;;;;5070475;28;20048;-72
2022/08/09 05:26:20;;;;;;;4.75;2.85;;;18.90;95.40;;;;;;5070155;28;20410;-72
2022/08/09 05:28:46;;;;;;;6.82;3.35;;;18.90;95.50;;;;;;5070200;28;20108;-72
2022/08/09 05:31:12;;;;;;;6.53;3.10;;;19.00;95.50;;;;;;5070333;28;20031;-72
2022/08/09 05:33:38;;;;;;;6.63;3.50;;;19.00;95.50;;;;;;5070086;28;20040;-72
2022/08/09 05:36:04;;;;;;;6.63;3.47;;;19.00;95.50;;;;;;5070168;28;20037;-72
2022/08/09 05:38:31;;;;;;;6.45;3.20;;;19.00;95.50;;;;;;5070174;28;20113;-72
2022/08/09 05:40:57;;;;;;;5.97;3.15;;;19.00;95.50;;;;;;5070196;28;20029;-72
2022/08/09 05:43:23;;;;;;;5.68;3.00;;;19.00;95.50;;;;;;5070164;28;20498;-72
2022/08/09 05:45:49;;;;;;;8.10;3.83;;;19.00;95.50;;;;;;5070096;28;20020;-72
2022/08/09 05:48:15;;;;;;;7.00;3.90;;;19.00;95.50;;;;;;5071466;28;20504;-72
2022/08/09 05:50:43;;;;;;;6.38;3.75;;;19.10;95.60;;;;;;5073524;28;20158;-72
2022/08/09 05:53:10;;;;;;;7.57;3.75;;;19.10;95.80;;;;;;5073862;28;20028;-72
2022/08/09 05:55:36;;;;;;;6.38;3.03;;;19.10;95.90;;;;;;5055554;28;20024;-72
2022/08/09 05:58:02;;;;;;;6.05;3.33;;;19.10;95.90;;;;;;5073551;28;20436;-72
2022/08/09 06:00:30;;;;;;;7.75;3.97;;;19.10;95.90;;;;;;5073313;28;20055;-72
2022/08/09 06:02:57;;;;;;;5.72;3.72;;;19.10;95.80;;;;;;5073422;28;20060;-72
2022/08/09 06:05:25;;;;;;;6.07;3.28;;;19.10;95.90;;;;;;5073643;28;20457;-72
2022/08/09 06:07:51;;;;;;;7.38;3.47;;;19.20;95.90;;;;;;5073336;28;20021;-73
2022/08/09 06:10:17;;;;;;;5.72;3.20;;;19.20;95.70;;;;;;5073130;28;20086;-72
2022/08/09 06:12:43;;;;;;;6.93;3.33;;;19.20;95.70;;;;;;5073271;28;20035;-73
2022/08/09 06:15:09;;;;;;;9.07;3.30;;;19.20;95.70;;;;;;5073352;28;20033;-72
2022/08/09 06:17:35;;;;;;;5.45;3.60;;;19.30;95.70;;;;;;5072963;28;20024;-72
2022/08/09 06:20:02;;;;;;;8.52;3.65;;;19.30;95.70;;;;;;5072821;28;20033;-72
2022/08/09 06:22:28;;;;;;;6.10;3.30;;;19.30;95.50;;;;;;5073166;28;20036;-72
2022/08/09 06:24:54;;;;;;;6.18;3.30;;;19.40;95.40;;;;;;5073171;28;20028;-72
2022/08/09 06:27:20;;;;;;;5.50;3.15;;;19.40;95.30;;;;;;5073071;28;20024;-72
2022/08/09 06:29:46;;;;;;;6.75;2.95;;;19.40;95.40;;;;;;5055106;28;20393;-72
2022/08/09 06:32:12;;;;;;;6.03;3.00;;;19.40;95.40;;;;;;5072953;28;20036;-72
2022/08/09 06:34:38;;;;;;;8.02;3.55;;;19.50;95.40;;;;;;5073181;28;20044;-72
2022/08/09 06:37:05;;;;;;;9.65;3.25;;;19.50;95.30;;;;;;5072940;28;20075;-72
2022/08/09 06:39:31;;;;;;;7.10;3.55;;;19.50;95.30;;;;;;5072626;28;20111;-72
2022/08/09 06:41:57;;;;;;;4.90;2.90;;;19.60;95.30;;;;;;5072841;28;20307;-72
2022/08/09 06:44:41;;;;;;;6.47;3.35;;;19.60;95.20;;;;;;5031431;28;20049;-72
2022/08/09 06:47:07;;;;;;;6.20;3.15;;;19.60;95.00;;;;;;5032841;28;20474;-72
2022/08/09 06:49:33;;;;;;;7.13;3.33;;;19.60;95.00;;;;;;5032529;28;20175;-72
2022/08/09 06:51:59;;;;;;;6.10;3.38;;;19.70;95.00;;;;;;5033131;28;20110;-72
2022/08/09 06:54:25;;;;;;;8.65;3.20;;;19.70;95.00;;;;;;5032898;28;20112;-73
2022/08/09 06:56:51;;;;;;;6.38;3.47;;;19.70;95.00;;;;;;5032653;28;20036;-73
2022/08/09 06:59:17;;;;;;;8.45;3.45;;;19.70;95.20;;;;;;5030991;28;20029;-73
2022/08/09 07:01:43;;;;;;;4.18;2.70;;;19.70;94.90;;;;;;5032507;28;20025;-72
2022/08/09 07:04:09;;;;;;;5.43;2.50;;;19.80;95.00;;;;;;5032622;28;20033;-72
2022/08/09 07:06:35;;;;;;;5.03;2.60;;;19.80;95.00;;;;;;5031192;28;20451;-73
2022/08/09 07:09:01;;;;;;;7.03;3.72;;;19.80;95.00;;;;;;5032238;28;20452;-73
2022/08/09 07:11:27;;;;;;;7.93;3.03;;;19.90;94.70;;;;;;5032472;28;20041;-72
2022/08/09 07:13:52;;;;;;;7.70;3.70;;;19.90;94.60;;;;;;5032935;28;20404;-72
2022/08/09 07:16:18;;;;;;;5.75;3.67;;;19.90;94.60;;;;;;5032232;28;20289;-73
2022/08/09 07:18:44;;;;;;;8.23;4.00;;;20.00;94.70;;;;;;5032217;28;20037;-73
2022/08/09 07:21:10;;;;;;;9.65;4.03;;;20.00;94.60;;;;;;5031059;28;20049;-72
2022/08/09 07:23:36;;;;;;;6.18;3.13;;;20.00;94.80;;;;;;5032118;28;20104;-72
2022/08/09 07:26:03;;;;;;;7.70;3.53;;;20.00;94.70;;;;;;5030848;28;20028;-72
2022/08/09 07:28:30;;;;;;;5.93;3.17;;;20.00;94.80;;;;;;5032050;28;20094;-72
2022/08/09 07:30:56;;;;;;;6.72;3.15;;;20.10;94.80;;;;;;5031972;28;20032;-72
2022/08/09 07:33:22;;;;;;;5.50;2.70;;;20.10;94.80;;;;;;5032089;28;20406;-72
2022/08/09 07:35:48;;;;;;;5.28;2.95;;;20.10;94.80;;;;;;5030675;28;20037;-73
2022/08/09 07:38:14;;;;;;;5.30;2.67;;;20.10;94.70;;;;;;5032306;28;20040;-72
2022/08/09 07:40:40;;;;;;;6.43;2.63;;;20.10;94.60;;;;;;5031587;28;20025;-73
2022/08/09 07:43:06;;;;;;;6.55;3.22;;;20.20;94.50;;;;;;5030327;28;20497;-73
2022/08/09 07:45:32;;;;;;;6.53;3.30;;;20.20;94.20;;;;;;5031904;28;20032;-73
2022/08/09 07:47:59;;;;;;;6.47;3.35;;;20.30;93.80;;;;;;5031809;28;20029;-73
2022/08/09 07:50:26;;;;;;;6.97;3.00;;;20.30;93.30;;;;;;5031518;28;20394;-72
2022/08/09 07:52:53;;;;;;;8.90;3.28;;;20.30;93.30;;;;;;5030368;28;20037;-73
2022/08/09 07:55:20;;;;;;;7.60;3.30;;;20.40;93.30;;;;;;5030134;28;20030;-72
2022/08/09 07:57:47;;;;;;;6.07;3.03;;;20.40;93.30;;;;;;5031391;28;20486;-72
2022/08/09 08:00:18;;;;;;;8.82;3.70;;;20.50;93.50;;;;;;5031426;28;20108;-72
2022/08/09 08:02:45;;;;;;;8.32;2.92;;;20.50;93.60;;;;;;5031537;28;20112;-73
2022/08/09 08:05:11;;;;;;;5.85;3.47;;;20.60;93.30;;;;;;5031508;28;20498;-73
2022/08/09 08:07:37;;;;;;;7.43;3.00;;;20.60;93.10;;;;;;5031412;28;20490;-73
2022/08/09 08:10:04;;;;;;;7.97;2.97;;;20.70;92.90;;;;;;5031001;28;20025;-73
2022/08/09 08:12:31;;;;;;;5.88;2.60;;;20.70;92.70;;;;;;5030969;28;20029;-72
2022/08/09 08:14:57;;;;;;;8.40;2.90;;;20.80;92.40;;;;;;5031283;28;20037;-72
2022/08/09 08:17:23;;;;;;;6.15;3.10;;;20.80;92.40;;;;;;5031167;28;20029;-72
2022/08/09 08:19:49;;;;;;;6.05;2.70;;;20.80;92.50;;;;;;5031016;28;20041;-73
2022/08/09 08:22:15;;;;;;;6.35;2.65;;;20.80;92.50;;;;;;5031267;28;20393;-73
2022/08/09 08:24:41;;;;;;;6.45;2.80;;;20.80;92.60;;;;;;5031105;28;20037;-73
2022/08/09 08:27:08;;;;;;;6.40;3.13;;;20.80;92.80;;;;;;5031105;28;20026;-72
2022/08/09 08:29:34;;;;;;;5.20;2.83;;;20.90;92.70;;;;;;5031137;28;20112;-72
2022/08/09 08:32:00;;;;;;;7.40;2.90;;;20.90;92.50;;;;;;5031578;28;20057;-71
2022/08/09 08:34:26;;;;;;;6.63;2.72;;;20.90;92.50;;;;;;5013941;28;20064;-72
2022/08/09 08:36:52;;;;;;;6.00;2.58;;;20.90;92.40;;;;;;5031428;28;20187;-71
2022/08/09 08:39:17;;;;;;;7.57;3.03;;;21.00;92.40;;;;;;5031061;28;20033;-72
2022/08/09 08:41:44;;;;;;;6.03;2.90;;;21.10;92.30;;;;;;5031287;28;20030;-72
2022/08/09 08:44:12;;;;;;;5.45;3.20;;;21.00;92.30;;;;;;5031326;28;20032;-71
2022/08/09 08:46:39;;;;;;;5.53;2.83;;;21.10;92.20;;;;;;5031192;28;20156;-71
2022/08/09 08:49:10;;;;;;;9.68;3.13;;;21.10;92.00;;;;;;5031346;28;20052;-72
2022/08/09 08:51:38;;;;;;;6.05;2.88;;;21.10;91.50;;;;;;5029894;28;20116;-71
2022/08/09 08:54:07;;;;;;;7.18;3.30;;;21.10;91.40;;;;;;5030124;28;20040;-73
2022/08/09 08:56:37;;;;;;;4.90;2.40;;;21.20;91.30;;;;;;5013447;28;20119;-71
2022/08/09 08:59:11;;;;;;;5.07;2.40;;;21.20;91.30;;;;;;5029540;28;20041;-71
2022/08/09 09:01:42;;;;;;;8.80;2.90;;;21.20;91.20;;;;;;5030088;28;20419;-71
2022/08/09 09:04:10;;;;;;;5.78;2.83;;;21.20;91.20;;;;;;5031047;28;20055;-73
2022/08/09 09:06:39;;;;;;;4.35;2.83;;;21.30;91.00;;;;;;5031081;28;20397;-72
2022/08/09 09:09:06;;;;;;;5.55;2.70;;;21.30;90.60;;;;;;5030602;28;20087;-73
2022/08/09 09:11:35;;;;;;;7.30;2.90;;;21.40;90.60;;;;;;5030833;28;20032;-72
2022/08/09 09:14:08;;;;;;;6.32;2.70;;;21.40;90.30;;;;;;5030592;28;20108;-72
2022/08/09 09:16:34;;;;;;;5.80;2.60;;;21.50;90.40;;;;;;5030481;28;20105;-72
2022/08/09 09:19:05;;;;;;;4.28;2.53;;;21.50;90.10;;;;;;5030425;28;20112;-73
2022/08/09 09:21:31;;;;;;;7.32;2.88;;;21.50;90.20;;;;;;5030697;28;20505;-72
2022/08/09 09:24:03;;;;;;;9.60;2.75;;;21.60;90.00;;;;;;5032937;28;20105;-72
2022/08/09 09:26:30;;;;;;;4.32;2.60;;;21.50;89.80;;;;;;5034408;28;20512;-72
2022/08/09 09:28:56;;;;;;;4.70;2.40;;;21.60;89.80;;;;;;5034186;28;20029;-72
2022/08/09 09:31:23;;;;;;;5.00;2.53;;;21.60;89.80;;;;;;5034285;28;20026;-72
2022/08/09 09:33:49;;;;;;;6.03;2.80;;;21.60;89.40;;;;;;5034407;28;20383;-72
2022/08/09 09:36:15;;;;;;;5.55;3.17;;;21.70;89.50;;;;;;5034237;28;20095;-72
2022/08/09 09:38:48;;;;;;;7.32;2.70;;;21.70;89.10;;;;;;5034090;28;20116;-72
2022/08/09 09:41:33;;;;;;;5.57;2.58;;;21.80;88.90;;;;;;5034238;28;20061;-71
2022/08/09 09:44:03;;;;;;;8.35;3.35;;;21.80;89.10;;;;;;5033874;28;20043;-72
2022/08/09 09:46:35;;;;;;;6.25;2.90;;;21.80;89.20;;;;;;5034169;28;20083;-72
2022/08/09 09:49:06;;;;;;;6.93;2.60;;;21.80;88.80;;;;;;5034115;28;20394;-72
2022/08/09 09:51:34;;;;;;;7.80;2.97;;;21.90;88.40;;;;;;5034015;28;20064;-72
2022/08/09 09:54:18;;;;;;;3.78;1.95;;;22.00;88.10;;;;;;5032596;28;20109;-72
2022/08/09 09:56:46;;;;;;;4.18;2.50;;;22.00;87.70;;;;;;5033981;28;20600;-72
2022/08/09 09:59:14;;;;;;;7.55;2.50;;;22.10;87.70;;;;;;5033624;28;20528;-71
2022/08/09 10:01:41;;;;;;;3.38;2.33;;;22.10;86.70;;;;;;5033954;28;20040;-71
2022/08/09 10:04:18;;;;;;;4.50;2.40;;;22.20;86.90;;;;;;5033016;28;20091;-73
2022/08/09 10:06:45;;;;;;;4.07;2.47;;;22.20;85.50;;;;;;5034025;28;20026;-74
2022/08/09 10:09:13;;;;;;;7.13;2.43;;;22.30;85.70;;;;;;5033956;28;20029;-71
2022/08/09 10:11:40;;;;;;;5.03;2.58;;;22.30;85.70;;;;;;5033915;28;20300;-73
2022/08/09 10:14:23;;;;;;;3.50;2.22;;;22.30;85.90;;;;;;5034019;28;20037;-72
2022/08/09 10:16:49;;;;;;;4.88;2.40;;;22.30;85.30;;;;;;5032676;28;20025;-72
2022/08/09 10:19:15;;;;;;;5.88;2.85;;;22.30;84.90;;;;;;5033806;28;20524;-72
2022/08/09 10:21:49;;;;;;;6.35;2.80;;;22.40;83.10;;;;;;5033735;28;20025;-72
2022/08/09 10:24:19;;;;;;;6.30;2.75;;;22.40;83.50;;;;;;5033931;28;20028;-72
2022/08/09 10:26:46;;;;;;;5.22;2.47;;;22.50;83.50;;;;;;5033929;28;20070;-73
2022/08/09 10:29:12;;;;;;;4.68;2.20;;;22.50;83.80;;;;;;5032257;28;20044;-71
2022/08/09 10:31:39;;;;;;;5.97;2.70;;;22.50;83.60;;;;;;5033498;28;20028;-72
2022/08/09 10:34:06;;;;;;;4.97;2.53;;;22.60;83.50;;;;;;5031679;28;20080;-73
2022/08/09 10:36:32;;;;;;;5.53;2.60;;;22.60;83.40;;;;;;5033537;28;20029;-72
2022/08/09 10:38:59;;;;;;;5.05;2.67;;;22.60;83.70;;;;;;5033341;28;20087;-73
2022/08/09 10:41:25;;;;;;;5.97;3.10;;;22.70;83.30;;;;;;5033428;28;20060;-72
2022/08/09 10:43:51;;;;;;;7.00;3.13;;;22.70;83.40;;;;;;5033315;28;20039;-72
2022/08/09 10:46:29;;;;;;;6.43;3.05;;;22.80;82.70;;;;;;5031875;28;20391;-72
2022/08/09 10:49:16;;;;;;;8.20;2.53;;;22.80;83.20;;;;;;5033065;28;20033;-72
2022/08/09 10:52:08;;;;;;;6.90;2.67;;;22.80;83.30;;;;;;5033601;28;20110;-72
2022/08/09 10:54:34;;;;;;;6.13;2.70;;;22.80;82.10;;;;;;5031935;28;20037;-72
2022/08/09 10:57:13;;;;;;;6.80;2.90;;;22.80;82.50;;;;;;5033212;28;20057;-71
2022/08/09 10:59:41;;;;;;;5.13;2.78;;;22.90;82.80;;;;;;5032992;28;20091;-71
2022/08/09 11:02:14;;;;;;;5.40;2.92;;;22.90;82.50;;;;;;5032993;28;20053;-72
2022/08/09 11:04:41;;;;;;;5.07;2.70;;;22.90;82.00;;;;;;5031394;28;20487;-72
2022/08/09 11:07:07;;;;;;;4.85;2.80;;;23.00;82.00;;;;;;5032745;28;20025;-72
2022/08/09 11:09:36;;;;;;;4.63;2.90;;;23.00;82.10;;;;;;5032345;28;20079;-72
2022/08/09 11:12:10;;;;;;;3.95;2.40;;;23.00;81.30;;;;;;5032490;28;20512;-72
2022/08/09 11:14:40;;;;;;;5.35;2.60;;;23.00;81.50;;;;;;5032418;28;20437;-72
2022/08/09 11:17:12;;;;;;;5.32;2.80;;;23.00;81.70;;;;;;5032281;28;20060;-72
2022/08/09 11:19:53;;;;;;;5.40;2.67;;;23.00;81.80;;;;;;5032027;28;20082;-72
2022/08/09 11:22:20;;;;;;;6.65;2.75;;;23.00;81.50;;;;;;5032306;28;20028;-72
2022/08/09 11:25:07;;;;;;;7.25;2.88;;;23.10;81.10;;;;;;5032517;28;20280;-72
2022/08/09 11:27:39;;;;;;;4.43;2.40;;;23.10;80.60;;;;;;5032286;28;20025;-72
2022/08/09 11:30:07;;;;;;;5.43;2.80;;;23.10;80.90;;;;;;5031814;28;20043;-72
2022/08/09 11:32:49;;;;;;;4.53;2.53;;;23.10;79.90;;;;;;5032118;28;20037;-72
2022/08/09 11:35:27;;;;;;;5.82;2.63;;;23.10;79.80;;;;;;5032459;28;20358;-72
2022/08/09 11:37:57;;;;;;;5.27;2.57;;;23.10;80.20;;;;;;5032027;28;20036;-72
2022/08/09 11:40:31;;;;;;;5.15;2.60;;;23.20;79.50;;;;;;5030342;28;20065;-73
2022/08/09 11:42:59;;;;;;;5.22;2.50;;;23.20;79.70;;;;;;5031863;28;20029;-73
2022/08/09 11:45:42;;;;;;;3.60;2.50;;;23.20;79.60;;;;;;5031341;28;20060;-72
2022/08/09 11:48:11;;;;;;;4.53;2.35;;;23.20;78.90;;;;;;5031838;28;20030;-72
2022/08/09 11:51:00;;;;;;;4.00;2.25;;;23.20;79.20;;;;;;5030308;28;20409;-72
2022/08/09 11:53:28;;;;;;;3.50;2.22;;;23.30;78.30;;;;;;5031931;28;20738;-72
2022/08/09 11:55:57;;;;;;;5.37;2.50;;;23.30;78.50;;;;;;5032075;28;20430;-72
2022/08/09 11:58:26;;;;;;;4.88;2.40;;;23.30;78.80;;;;;;5013754;28;20291;-72
2022/08/09 12:01:02;;;;;;;4.13;2.42;;;23.30;79.10;;;;;;5031500;28;20029;-72
2022/08/09 12:03:28;;;;;;;5.50;2.47;;;23.30;78.20;;;;;;5031522;28;20049;-72
2022/08/09 12:05:57;;;;;;;8.95;2.70;;;23.30;77.50;;;;;;5031547;28;20501;-72
2022/08/09 12:08:24;;;;;;;;;;;23.40;75.50;;;;;;5031972;28;20025;-72
2022/08/09 12:10:52;;;;;;;3.95;2.25;;;23.40;76.50;;;;;;5031067;28;20440;-72
2022/08/09 12:13:32;;;;;;;4.28;2.33;;;23.40;77.00;;;;;;5030219;28;20033;-72
2022/08/09 12:16:17;;;;;;;6.03;2.42;;;23.40;78.10;;;;;;5031261;28;20076;-72
2022/08/09 12:18:46;;;;;;;6.18;2.50;;;23.50;78.00;;;;;;5029825;28;20104;-72
2022/08/09 12:21:12;;;;;;;;;;;23.60;76.80;;;;;;5031811;28;20091;-71
2022/08/09 12:23:46;;;;;;;4.68;2.40;;;23.80;75.60;;;;;;5031752;28;19963;-71
2022/08/09 12:26:12;;;;;;;5.63;2.40;;;23.80;75.70;;;;;;5031273;28;20022;-71
2022/08/09 12:28:47;;;;;;;5.90;2.97;;;23.80;75.60;;;;;;5029982;28;20041;-73
2022/08/09 12:31:25;;;;;;;7.07;2.35;;;23.80;75.60;;;;;;5031346;28;20429;-72
2022/08/09 12:33:55;;;;;;;6.22;2.40;;;23.70;75.50;;;;;;5031201;28;20386;-72
2022/08/09 12:36:22;;;;;;;4.45;2.30;;;23.70;76.40;;;;;;5031101;28;20030;-72
2022/08/09 12:38:53;;;;;;;3.95;2.42;;;23.70;76.70;;;;;;5030742;28;20033;-72
2022/08/09 12:41:29;;;;;;;3.65;2.50;;;23.80;75.90;;;;;;5031184;28;20029;-72
2022/08/09 12:43:57;;;;;;;5.28;2.55;;;23.70;76.60;;;;;;5030851;28;20501;-72
2022/08/09 12:46:24;;;;;;;4.38;2.45;;;23.80;75.90;;;;;;5031432;28;20080;-72
2022/08/09 12:48:53;;;;;;;6.45;2.50;;;23.90;75.20;;;;;;5030787;28;20363;-72
2022/08/09 12:51:21;;;;;;;3.88;2.25;;;23.90;75.00;;;;;;5030744;28;20108;-71
2022/08/09 12:54:03;;;;;;;4.28;2.58;;;24.00;75.20;;;;;;5030804;28;20068;-72
2022/08/09 12:56:30;;;;;;;5.35;2.13;;;24.00;74.70;;;;;;5030779;28;20037;-72